KBOK/BOK METAR and TAF weather

Enter ICAO airport designator
Station Type Date Time Source
KBOK METAR 2022/06/30 11:56 UTC NOAA

KBOK 301156Z AUTO VRB03KT 2 1/2SM -RA BR OVC004 11/11 A3008 RMK AO2 RAB43 SLP188 P0000 6//// 7//// T01110111 10122 20111 56005 $


Station Type Date Time Source
KBOK Decoded METAR 2022/06/30 11:56 UTC NOAA

Brookings, Brookings Airport, OR, United States (KBOK) 42-04-28N 124-17-24W
Jun 30, 2022 - 07:56 AM EDT / 2022.06.30 1156 UTC
Wind: Variable at 3 MPH (3 KT):0
Visibility: 2 1/2 mile(s):0
Sky conditions: overcast
Weather: light rain; mist
Precipitation last hour: A trace
Temperature: 52.0 F (11.1 C)
Dew Point: 52.0 F (11.1 C)
Relative Humidity: 100%
Pressure (altimeter): 30.08 in. Hg (1018 hPa)
Pressure tendency: 0.01 inches (0.5 hPa) lower than three hours ago
ob: KBOK 301156Z AUTO VRB03KT 2 1/2SM -RA BR OVC004 11/11 A3008 RMK AO2 RAB43 SLP188 P0000 6//// 7//// T01110111 10122 20111 56005
cycle: 12

Station Type Date Time Source
KBOK TAF UTC NOAA

Error!

Example: see airport list